Time;durP1;ratioP1;P1;durP2;ratioP2;P2;SDS_P1;SDS_P2;PMS_P1;PMS_P2;Temp;Humidity;BMP_temperature;BMP_pressure;BME280_temperature;BME280_humidity;BME280_pressure;Samples;Min_cycle;Max_cycle;Signal;HPM_P1;HPM_P2
2022/03/01 00:01:25;;;;;;;16.38;11.75;;;;;;;5.51;56.46;102751.56;5015238;28;20278;-46
2022/03/01 00:03:53;;;;;;;16.95;11.50;;;;;;;5.51;56.54;102752.41;5015376;28;20412;-48
2022/03/01 00:06:20;;;;;;;19.73;12.48;;;;;;;5.52;56.30;102754.06;5017456;28;20133;-50
2022/03/01 00:08:48;;;;;;;20.67;12.40;;;;;;;5.52;56.59;102751.34;5015300;28;20037;-45
2022/03/01 00:11:16;;;;;;;19.33;12.35;;;;;;;5.51;56.52;102752.41;5015096;28;20070;-46
2022/03/01 00:13:43;;;;;;;17.42;11.77;;;;;;;5.49;56.47;102749.03;5015318;28;20136;-46
2022/03/01 00:16:11;;;;;;;18.73;11.95;;;;;;;5.49;56.54;102754.44;5015432;28;20069;-45
2022/03/01 00:18:39;;;;;;;16.58;11.43;;;;;;;5.47;56.68;102761.91;5014961;28;20042;-46
2022/03/01 00:21:07;;;;;;;17.67;12.10;;;;;;;5.48;56.67;102760.88;4997520;28;20050;-46
2022/03/01 00:23:35;;;;;;;17.42;11.73;;;;;;;5.49;56.74;102756.31;5014490;28;20038;-45
2022/03/01 00:26:03;;;;;;;16.63;12.48;;;;;;;5.48;56.30;102757.31;5031267;28;20038;-47
2022/03/01 00:28:30;;;;;;;18.83;11.73;;;;;;;5.46;56.62;102764.78;5033576;28;20048;-47
2022/03/01 00:30:58;;;;;;;20.23;11.57;;;;;;;5.45;56.86;102755.84;5025047;28;20125;-44
2022/03/01 00:33:26;;;;;;;19.02;12.15;;;;;;;5.46;56.80;102762.06;5014890;28;20050;-46
2022/03/01 00:35:54;;;;;;;17.27;12.60;;;;;;;5.45;56.40;102755.00;5025400;28;20038;-45
2022/03/01 00:38:21;;;;;;;20.60;12.32;;;;;;;5.42;56.47;102756.22;5014657;28;20042;-43
2022/03/01 00:40:49;;;;;;;17.13;12.07;;;;;;;5.40;56.69;102750.16;5013490;28;20050;-46
2022/03/01 00:43:17;;;;;;;19.80;12.15;;;;;;;5.39;56.86;102747.63;5014057;28;20084;-47
2022/03/01 00:45:44;;;;;;;17.92;11.93;;;;;;;5.39;57.04;102748.47;5014178;28;20077;-47
2022/03/01 00:48:12;;;;;;;20.63;12.48;;;;;;;5.39;56.83;102743.06;5026929;28;20053;-47
2022/03/01 00:50:40;;;;;;;17.20;11.27;;;;;;;5.38;56.70;102751.38;5013168;28;20041;-46
2022/03/01 00:53:08;;;;;;;16.35;11.85;;;;;;;5.35;57.01;102747.16;5014103;28;20473;-46
2022/03/01 00:55:35;;;;;;;18.42;12.30;;;;;;;5.33;56.97;102733.00;5015029;28;20034;-46
2022/03/01 00:58:06;;;;;;;18.88;12.32;;;;;;;5.31;56.89;102740.44;5024970;28;20381;-46
2022/03/01 01:00:34;;;;;;;20.15;13.00;;;;;;;5.29;56.90;102739.78;5015166;28;20044;-48
2022/03/01 01:03:02;;;;;;;18.08;12.80;;;;;;;5.27;56.77;102744.56;5014440;28;20128;-48
2022/03/01 01:05:30;;;;;;;18.17;12.40;;;;;;;5.25;56.96;102741.19;5014288;28;20042;-47
2022/03/01 01:07:57;;;;;;;20.65;12.32;;;;;;;5.23;57.19;102738.69;5031131;28;20037;-48
2022/03/01 01:10:25;;;;;;;17.77;12.73;;;;;;;5.22;56.79;102738.84;5033481;28;20045;-47
2022/03/01 01:12:53;;;;;;;18.38;12.50;;;;;;;5.22;57.01;102741.56;5032615;28;20068;-50
2022/03/01 01:15:21;;;;;;;18.15;12.15;;;;;;;5.21;57.10;102745.28;5019518;28;20046;-46
2022/03/01 01:17:49;;;;;;;18.67;12.52;;;;;;;5.19;57.20;102748.16;5014836;28;20046;-46
2022/03/01 01:20:17;;;;;;;17.40;12.18;;;;;;;5.19;56.83;102741.94;5013945;28;20076;-47
2022/03/01 01:22:45;;;;;;;17.95;13.00;;;;;;;5.19;57.66;102744.63;5013539;28;20049;-46
2022/03/01 01:25:19;;;;;;;16.85;11.85;;;;;;;5.18;56.90;102746.50;5014023;28;20050;-47
2022/03/01 01:27:49;;;;;;;18.45;13.15;;;;;;;5.17;57.24;102743.97;5013940;28;20050;-45
2022/03/01 01:30:21;;;;;;;19.38;12.35;;;;;;;5.14;57.16;102734.38;5024237;28;20038;-47
2022/03/01 01:32:49;;;;;;;17.70;12.30;;;;;;;5.12;57.25;102739.13;5033490;28;20060;-45
2022/03/01 01:35:19;;;;;;;17.95;12.65;;;;;;;5.12;57.28;102747.22;5017060;28;20543;-47
2022/03/01 01:37:47;;;;;;;20.40;12.32;;;;;;;5.10;57.48;102744.72;5013747;28;20591;-46
2022/03/01 01:40:25;;;;;;;18.08;12.48;;;;;;;5.11;57.41;102740.16;5013794;28;20100;-48
2022/03/01 01:42:54;;;;;;;17.02;11.98;;;;;;;5.09;57.63;102743.03;5014935;28;20411;-46
2022/03/01 01:45:23;;;;;;;19.80;13.18;;;;;;;5.10;57.70;102742.03;5013233;28;20064;-47
2022/03/01 01:47:52;;;;;;;17.70;12.23;;;;;;;5.09;57.46;102742.19;5012352;28;20038;-45
2022/03/01 01:50:21;;;;;;;17.58;12.10;;;;;;;5.08;57.55;102741.38;5030935;28;20072;-51
2022/03/01 01:52:51;;;;;;;18.48;11.68;;;;;;;5.09;57.18;102743.03;5032461;28;20050;-47
2022/03/01 01:55:24;;;;;;;21.17;12.85;;;;;;;5.05;57.14;102741.75;5022194;28;20412;-47
2022/03/01 01:57:58;;;;;;;19.30;12.70;;;;;;;5.01;57.47;102740.41;5012193;28;20046;-47
2022/03/01 02:00:26;;;;;;;17.38;12.13;;;;;;;5.03;57.73;102732.97;5012233;28;20065;-45
2022/03/01 02:02:54;;;;;;;16.55;11.50;;;;;;;5.06;57.39;102740.72;5020918;28;20037;-46
2022/03/01 02:05:26;;;;;;;17.70;12.00;;;;;;;5.07;57.66;102734.25;5037016;28;20038;-46
2022/03/01 02:07:53;;;;;;;21.73;13.18;;;;;;;5.06;57.54;102738.00;5035600;28;20376;-46
2022/03/01 02:10:21;;;;;;;19.33;12.18;;;;;;;5.07;57.68;102738.84;5037080;28;20038;-46
2022/03/01 02:12:49;;;;;;;22.70;13.20;;;;;;;5.05;57.72;102719.25;5035031;28;20069;-44
2022/03/01 02:15:18;;;;;;;19.17;13.13;;;;;;;5.04;57.72;102731.09;5018094;28;20074;-47
2022/03/01 02:17:45;;;;;;;20.73;13.10;;;;;;;5.02;57.95;102728.56;4999650;28;20045;-47
2022/03/01 02:20:15;;;;;;;20.60;13.48;;;;;;;5.03;57.54;102732.97;5021281;28;20412;-48
2022/03/01 02:22:43;;;;;;;19.15;12.23;;;;;;;4.97;57.98;102722.91;5027223;28;20063;-45
2022/03/01 02:25:11;;;;;;;17.83;12.63;;;;;;;4.97;58.03;102735.56;5016787;28;20129;-49
2022/03/01 02:27:40;;;;;;;18.63;12.75;;;;;;;4.95;57.89;102735.75;5027209;28;20140;-46
2022/03/01 02:30:09;;;;;;;22.08;13.13;;;;;;;4.94;57.99;102734.06;5022043;28;20037;-45
2022/03/01 02:32:39;;;;;;;20.55;13.40;;;;;;;4.92;57.83;102736.13;5020040;28;20052;-46
2022/03/01 02:35:08;;;;;;;18.90;12.50;;;;;;;4.90;58.00;102727.34;5035765;28;20083;-45
2022/03/01 02:37:36;;;;;;;16.95;12.52;;;;;;;4.92;58.18;102733.41;5035858;28;20048;-48
2022/03/01 02:40:05;;;;;;;18.63;12.68;;;;;;;4.92;58.04;102730.72;5028120;28;20520;-46
2022/03/01 02:42:37;;;;;;;18.17;13.15;;;;;;;4.90;58.20;102732.75;5036491;28;20045;-46
2022/03/01 02:45:09;;;;;;;19.33;13.20;;;;;;;4.90;57.92;102738.16;5034498;28;20080;-46
2022/03/01 02:47:37;;;;;;;20.95;13.90;;;;;;;4.89;58.06;102731.09;5018208;28;20060;-47
2022/03/01 02:50:06;;;;;;;19.13;12.25;;;;;;;4.89;57.82;102728.38;5016435;28;20034;-47
2022/03/01 02:52:34;;;;;;;18.40;13.35;;;;;;;4.87;58.06;102733.13;5017224;28;20510;-48
2022/03/01 02:55:06;;;;;;;19.25;13.02;;;;;;;4.86;58.13;102726.06;5016542;28;20061;-48
2022/03/01 02:57:33;;;;;;;18.30;13.02;;;;;;;4.85;58.08;102718.97;5017296;28;20037;-44
2022/03/01 03:00:01;;;;;;;19.77;13.02;;;;;;;4.84;57.77;102722.69;5016014;28;20060;-44
2022/03/01 03:02:29;;;;;;;19.60;13.45;;;;;;;4.82;58.42;102713.94;5016641;28;20463;-43
2022/03/01 03:04:57;;;;;;;18.00;13.10;;;;;;;4.83;58.24;102716.44;5027209;28;20088;-45
2022/03/01 03:07:26;;;;;;;18.85;13.35;;;;;;;4.83;58.34;102718.31;5016040;28;20490;-43
2022/03/01 03:09:53;;;;;;;18.58;13.73;;;;;;;4.84;57.86;102703.78;5015980;28;20038;-46
2022/03/01 03:12:21;;;;;;;19.58;13.35;;;;;;;4.84;58.00;102699.22;5032695;28;20052;-44
2022/03/01 03:14:49;;;;;;;19.65;13.75;;;;;;;4.85;58.14;102708.16;5035609;28;20048;-47
2022/03/01 03:17:16;;;;;;;19.63;13.15;;;;;;;4.83;57.94;102702.94;5035866;28;20049;-47
2022/03/01 03:19:44;;;;;;;18.50;13.85;;;;;;;4.82;57.67;102708.53;5035833;28;20057;-46
2022/03/01 03:22:12;;;;;;;21.85;13.13;;;;;;;4.80;57.79;102711.41;5022753;28;20129;-46
2022/03/01 03:24:40;;;;;;;21.38;13.23;;;;;;;4.80;57.66;102699.78;5015718;28;20050;-46
2022/03/01 03:27:07;;;;;;;19.73;12.93;;;;;;;4.79;57.53;102709.75;5019021;28;20045;-45
2022/03/01 03:29:35;;;;;;;20.65;12.85;;;;;;;4.79;57.90;102709.75;5030533;28;20085;-45
2022/03/01 03:32:03;;;;;;;18.63;12.52;;;;;;;4.80;57.93;102706.00;5018666;28;20038;-44
2022/03/01 03:34:30;;;;;;;20.10;13.98;;;;;;;4.84;57.65;102701.09;5030288;28;20046;-46
2022/03/01 03:36:58;;;;;;;20.98;12.75;;;;;;;4.84;57.67;102701.94;5016843;28;20077;-45
2022/03/01 03:39:26;;;;;;;19.30;12.93;;;;;;;4.83;57.20;102713.72;5018046;28;21766;-46
2022/03/01 03:41:54;;;;;;;18.20;12.15;;;;;;;4.79;57.60;102708.91;5033902;28;20076;-44
2022/03/01 03:44:21;;;;;;;19.70;13.20;;;;;;;4.78;57.46;102713.44;5034477;28;20050;-46
2022/03/01 03:46:49;;;;;;;18.02;12.85;;;;;;;4.78;57.09;102709.91;5034212;28;20113;-44
2022/03/01 03:49:17;;;;;;;18.05;13.07;;;;;;;4.76;57.45;102703.84;5033493;28;20395;-42
2022/03/01 03:51:44;;;;;;;18.70;12.73;;;;;;;4.77;57.45;102705.53;5034981;28;20041;-44
2022/03/01 03:54:12;;;;;;;20.88;13.10;;;;;;;4.80;57.60;102705.16;5035148;28;20403;-47
2022/03/01 03:56:40;;;;;;;18.75;13.13;;;;;;;4.80;57.29;102699.78;5035095;28;20073;-47
2022/03/01 03:59:08;;;;;;;20.98;13.90;;;;;;;4.79;57.19;102708.91;5016177;28;20125;-45
2022/03/01 04:01:36;;;;;;;18.48;13.15;;;;;;;4.77;57.30;102711.78;5016363;28;20034;-47
2022/03/01 04:04:04;;;;;;;18.17;13.43;;;;;;;4.75;57.35;102707.59;5015189;28;20042;-48
2022/03/01 04:06:32;;;;;;;19.52;12.55;;;;;;;4.75;57.51;102696.78;5015211;28;20069;-44
2022/03/01 04:09:00;;;;;;;18.83;13.20;;;;;;;4.75;57.50;102689.50;5027390;28;20488;-46
2022/03/01 04:11:27;;;;;;;17.65;13.23;;;;;;;4.73;57.24;102699.66;5034645;28;20076;-45
2022/03/01 04:13:55;;;;;;;19.88;13.05;;;;;;;4.72;57.31;102698.00;5028228;28;20048;-46
2022/03/01 04:16:23;;;;;;;17.88;12.98;;;;;;;4.70;57.72;102706.25;5015052;28;20508;-46
2022/03/01 04:18:51;;;;;;;23.27;13.65;;;;;;;4.70;57.32;102702.72;5015695;28;20042;-47
2022/03/01 04:21:19;;;;;;;18.45;12.95;;;;;;;4.69;57.68;102710.00;5014979;28;20048;-46
2022/03/01 04:23:47;;;;;;;17.13;12.98;;;;;;;4.72;57.74;102714.19;5014381;28;20046;-47
2022/03/01 04:26:15;;;;;;;17.25;12.73;;;;;;;4.74;57.56;102711.28;5015607;28;20500;-47
2022/03/01 04:28:44;;;;;;;19.13;13.80;;;;;;;4.73;57.51;102717.72;5015698;28;20137;-47
2022/03/01 04:31:11;;;;;;;19.27;13.20;;;;;;;4.74;57.43;102714.00;5033988;28;20050;-45
2022/03/01 04:33:39;;;;;;;18.98;13.57;;;;;;;4.73;57.64;102709.63;5032949;28;20053;-48
2022/03/01 04:36:08;;;;;;;18.15;12.25;;;;;;;4.72;57.63;102708.78;5025264;28;20046;-48
2022/03/01 04:38:37;;;;;;;18.27;12.88;;;;;;;4.72;57.70;102707.97;5014569;28;20041;-47
2022/03/01 04:41:05;;;;;;;18.98;12.70;;;;;;;4.74;57.94;102708.59;5030421;28;20038;-47
2022/03/01 04:43:33;;;;;;;17.20;12.88;;;;;;;4.72;57.62;102713.34;5034184;28;20099;-47
2022/03/01 04:46:01;;;;;;;18.80;12.52;;;;;;;4.67;57.64;102712.03;5030453;28;20048;-46
2022/03/01 04:48:29;;;;;;;19.95;13.07;;;;;;;4.67;58.04;102713.91;5013147;28;20100;-47
2022/03/01 04:50:58;;;;;;;16.88;12.48;;;;;;;4.66;58.08;102715.75;5025697;28;20120;-47
2022/03/01 04:53:25;;;;;;;18.92;13.02;;;;;;;4.66;57.89;102712.22;5033554;28;20400;-46
2022/03/01 04:55:53;;;;;;;23.55;13.13;;;;;;;4.65;58.14;102714.06;5033035;28;20120;-46
2022/03/01 04:58:20;;;;;;;17.25;12.63;;;;;;;4.66;57.57;102715.75;5033984;28;20423;-45
2022/03/01 05:00:48;;;;;;;19.05;13.30;;;;;;;4.67;57.84;102712.03;5032936;28;20049;-48
2022/03/01 05:03:18;;;;;;;17.52;12.35;;;;;;;4.67;57.81;102697.69;5033645;28;20045;-46
2022/03/01 05:05:46;;;;;;;18.08;12.80;;;;;;;4.68;57.62;102699.38;5032148;28;20042;-47
2022/03/01 05:08:14;;;;;;;17.45;12.52;;;;;;;4.69;57.58;102704.59;5033565;28;20488;-46
2022/03/01 05:10:42;;;;;;;18.70;13.10;;;;;;;4.69;57.56;102696.50;5021216;28;20052;-46
2022/03/01 05:13:10;;;;;;;18.38;12.52;;;;;;;4.67;57.40;102695.84;5022890;28;20038;-46
2022/03/01 05:15:37;;;;;;;18.63;12.85;;;;;;;4.68;57.08;102696.66;5024716;28;20120;-46
2022/03/01 05:18:05;;;;;;;22.63;13.25;;;;;;;4.65;57.68;102700.56;5013946;28;20038;-46
2022/03/01 05:20:35;;;;;;;20.15;12.52;;;;;;;4.65;57.54;102703.28;5013730;28;20056;-45
2022/03/01 05:23:03;;;;;;;21.90;13.50;;;;;;;4.64;57.50;102707.00;5013608;28;20120;-45
2022/03/01 05:25:30;;;;;;;17.20;12.55;;;;;;;4.65;57.42;102702.44;5014565;28;20068;-47
2022/03/01 05:27:58;;;;;;;23.85;13.50;;;;;;;4.64;57.66;102695.34;5013807;28;20408;-45
2022/03/01 05:30:26;;;;;;;17.40;12.48;;;;;;;4.63;57.53;102699.91;5024754;28;20407;-49
2022/03/01 05:32:54;;;;;;;20.05;13.85;;;;;;;4.65;57.65;102695.16;5031970;28;20071;-49
2022/03/01 05:35:25;;;;;;;19.15;13.52;;;;;;;4.66;58.19;102688.75;5024663;28;20042;-47
2022/03/01 05:37:54;;;;;;;17.58;12.77;;;;;;;4.65;58.18;102680.84;5012331;28;20125;-46
2022/03/01 05:40:24;;;;;;;19.60;13.30;;;;;;;4.62;58.14;102684.75;5026140;28;20049;-45
2022/03/01 05:42:53;;;;;;;20.00;14.02;;;;;;;4.59;58.44;102682.38;5013854;28;20052;-43
2022/03/01 05:45:21;;;;;;;19.17;12.77;;;;;;;4.59;58.45;102677.00;4999519;28;20454;-46
2022/03/01 05:47:49;;;;;;;17.92;13.32;;;;;;;4.57;58.40;102673.66;5015667;28;20052;-44
2022/03/01 05:50:18;;;;;;;18.33;12.85;;;;;;;4.58;58.94;102674.50;5019991;28;20523;-43
2022/03/01 05:52:50;;;;;;;20.00;13.10;;;;;;;4.58;58.47;102679.91;5013515;28;20049;-44
2022/03/01 05:55:18;;;;;;;21.60;13.40;;;;;;;4.60;58.58;102678.69;5020694;28;20065;-45
2022/03/01 05:57:45;;;;;;;17.55;12.43;;;;;;;4.61;58.52;102669.56;5032126;28;20034;-47
2022/03/01 06:00:18;;;;;;;18.75;13.00;;;;;;;4.64;58.90;102671.03;5015250;28;20043;-43
2022/03/01 06:02:47;;;;;;;19.00;12.95;;;;;;;4.62;58.75;102667.72;5032841;28;20045;-44
2022/03/01 06:05:15;;;;;;;20.30;13.77;;;;;;;4.57;58.69;102678.19;5027580;28;20521;-42
2022/03/01 06:07:44;;;;;;;28.10;13.35;;;;;;;4.49;58.74;102671.00;5015057;28;20046;-44
2022/03/01 06:10:12;;;;;;;26.02;14.63;;;;;;;4.46;59.42;102663.28;5013519;28;20046;-46
2022/03/01 06:12:39;;;;;;;22.40;13.82;;;;;;;4.43;59.34;102666.34;4318061;28;10000823;-48
2022/03/01 06:15:09;;;;;;;20.65;14.13;;;;;;;4.42;59.35;102670.06;5018498;28;20155;-48
2022/03/01 06:17:37;;;;;;;20.63;14.25;;;;;;;4.43;59.72;102671.75;5024564;28;20104;-45
2022/03/01 06:20:09;;;;;;;22.55;14.55;;;;;;;4.42;59.46;102670.91;5010007;28;20046;-49
2022/03/01 06:22:37;;;;;;;21.45;13.90;;;;;;;4.43;59.96;102671.75;5008768;28;20546;-48
2022/03/01 06:25:06;;;;;;;25.23;15.60;;;;;;;4.44;60.01;102665.31;5009561;28;20052;-50
2022/03/01 06:27:38;;;;;;;23.48;14.77;;;;;;;4.46;59.74;102671.38;5009718;28;20052;-47
2022/03/01 06:30:06;;;;;;;22.67;14.93;;;;;;;4.46;59.75;102668.69;5009414;28;20044;-45
2022/03/01 06:32:34;;;;;;;18.92;14.00;;;;;;;4.45;59.81;102675.13;5009664;28;20049;-48
2022/03/01 06:35:02;;;;;;;19.30;14.10;;;;;;;4.44;59.83;102673.41;5009683;28;20045;-50
2022/03/01 06:37:38;;;;;;;19.48;13.98;;;;;;;4.49;60.20;102676.41;5018501;28;20041;-46
2022/03/01 06:40:07;;;;;;;20.33;13.57;;;;;;;4.48;60.03;102672.03;5009855;28;20048;-47
2022/03/01 06:42:35;;;;;;;20.30;14.20;;;;;;;4.45;59.99;102683.22;5009834;28;20038;-49
2022/03/01 06:45:03;;;;;;;20.63;14.07;;;;;;;4.42;59.85;102683.56;5009177;28;20560;-50
2022/03/01 06:47:31;;;;;;;21.23;14.55;;;;;;;4.43;60.17;102699.56;5016413;28;20052;-48
2022/03/01 06:50:00;;;;;;;20.60;13.75;;;;;;;4.44;60.08;102692.31;5013219;28;20122;-50
2022/03/01 06:52:29;;;;;;;19.33;13.77;;;;;;;4.44;59.79;102695.00;5013236;28;20116;-45
2022/03/01 06:54:56;;;;;;;18.45;13.43;;;;;;;4.46;60.03;102698.38;5013159;28;20475;-46
2022/03/01 06:57:24;;;;;;;21.23;13.68;;;;;;;4.48;59.62;102705.28;5014721;28;20129;-47
2022/03/01 06:59:53;;;;;;;19.70;13.90;;;;;;;4.49;59.87;102715.03;5015825;28;20045;-45
2022/03/01 07:02:22;;;;;;;20.83;12.90;;;;;;;4.49;59.35;102715.03;5015156;28;20092;-48
2022/03/01 07:04:50;;;;;;;22.52;13.40;;;;;;;4.49;59.38;102719.59;5022889;28;20046;-45
2022/03/01 07:07:18;;;;;;;21.38;13.27;;;;;;;4.50;59.35;102726.69;5034947;28;20042;-49
2022/03/01 07:09:45;;;;;;;19.23;13.10;;;;;;;4.49;59.52;102725.00;5034009;28;20140;-49
2022/03/01 07:12:13;;;;;;;19.40;13.55;;;;;;;4.50;59.90;102726.69;5035025;28;20120;-45
2022/03/01 07:14:41;;;;;;;17.27;11.80;;;;;;;4.53;59.71;102726.31;5035003;28;20147;-47
2022/03/01 07:17:08;;;;;;;19.00;13.30;;;;;;;4.56;59.27;102723.25;5034514;28;20147;-46
2022/03/01 07:19:36;;;;;;;18.67;12.73;;;;;;;4.58;59.42;102721.22;5021534;28;20159;-45
2022/03/01 07:22:03;;;;;;;18.45;12.45;;;;;;;4.61;59.35;102723.53;5015792;28;20129;-48
2022/03/01 07:24:31;;;;;;;17.17;12.48;;;;;;;4.64;59.19;102728.59;5024309;28;20073;-48
2022/03/01 07:26:59;;;;;;;18.75;12.45;;;;;;;4.64;58.65;102731.31;5034223;28;20144;-44
2022/03/01 07:29:27;;;;;;;21.25;12.55;;;;;;;4.71;58.89;102726.00;5026178;28;20034;-48
2022/03/01 07:31:55;;;;;;;16.85;11.65;;;;;;;4.70;58.71;102725.16;5015501;28;20081;-50
2022/03/01 07:34:25;;;;;;;18.55;12.45;;;;;;;4.72;58.79;102721.47;5015358;28;20455;-47
2022/03/01 07:36:53;;;;;;;18.38;12.52;;;;;;;4.72;58.65;102729.56;5016263;28;20040;-48
2022/03/01 07:39:21;;;;;;;22.52;13.35;;;;;;;4.72;58.39;102730.41;5028833;28;20045;-47
2022/03/01 07:41:49;;;;;;;18.20;13.23;;;;;;;4.75;58.96;102729.19;5035435;28;20033;-49
2022/03/01 07:44:17;;;;;;;18.60;12.00;;;;;;;4.76;58.73;102731.69;5034915;28;20056;-49
2022/03/01 07:46:49;;;;;;;17.70;12.57;;;;;;;4.76;59.04;102737.09;5035287;28;20049;-49
2022/03/01 07:49:16;;;;;;;21.27;12.57;;;;;;;4.77;58.89;102729.84;5030751;28;20052;-50
2022/03/01 07:51:44;;;;;;;18.63;12.52;;;;;;;4.73;59.01;102736.63;5034892;28;20460;-51
2022/03/01 07:54:12;;;;;;;17.25;12.45;;;;;;;4.75;58.87;102740.00;5034967;28;20476;-48
2022/03/01 07:56:40;;;;;;;16.45;11.82;;;;;;;4.77;58.90;102737.94;5030379;28;20046;-47
2022/03/01 07:59:08;;;;;;;19.27;13.30;;;;;;;4.75;59.28;102737.28;5014947;28;20053;-51
2022/03/01 08:01:36;;;;;;;18.27;12.75;;;;;;;4.75;59.50;102729.19;5015084;28;20041;-48
2022/03/01 08:04:04;;;;;;;20.05;12.65;;;;;;;4.77;59.34;102732.56;5014973;28;20447;-50
2022/03/01 08:06:31;;;;;;;18.42;12.25;;;;;;;4.76;59.35;102730.84;5015204;28;20048;-48
2022/03/01 08:09:04;;;;;;;16.40;12.07;;;;;;;4.74;59.94;102727.50;5026281;28;20056;-52
2022/03/01 08:11:32;;;;;;;19.30;12.32;;;;;;;4.76;60.06;102726.28;5035104;28;20042;-54
2022/03/01 08:14:00;;;;;;;17.30;11.50;;;;;;;4.77;59.97;102737.94;5034854;28;20100;-47
2022/03/01 08:16:27;;;;;;;18.58;12.73;;;;;;;4.78;59.96;102736.91;5028692;28;20117;-53
2022/03/01 08:18:55;;;;;;;20.48;13.00;;;;;;;4.78;60.08;102740.44;5025749;28;20042;-49
2022/03/01 08:21:23;;;;;;;17.50;12.35;;;;;;;4.81;60.27;102736.53;5014661;28;20112;-49
2022/03/01 08:23:53;;;;;;;17.85;11.98;;;;;;;4.82;59.59;102735.53;5020338;28;20149;-49
2022/03/01 08:26:21;;;;;;;20.20;11.80;;;;;;;4.83;59.79;102737.19;5015486;28;20073;-51
2022/03/01 08:28:49;;;;;;;17.70;11.30;;;;;;;4.85;59.98;102732.47;5025036;28;20133;-52
2022/03/01 08:31:17;;;;;;;18.63;12.15;;;;;;;4.86;60.17;102731.47;5033920;28;20132;-48
2022/03/01 08:33:46;;;;;;;19.98;13.15;;;;;;;4.88;60.03;102742.91;5033947;28;20043;-50
2022/03/01 08:36:17;;;;;;;21.00;15.02;;;;;;;4.87;60.10;102743.94;5027177;28;20397;-47
2022/03/01 08:38:45;;;;;;;16.65;12.07;;;;;;;4.89;60.17;102747.28;5014552;28;20049;-48
2022/03/01 08:41:13;;;;;;;19.65;12.18;;;;;;;4.91;60.07;102753.34;5014250;28;20044;-48
2022/03/01 08:43:40;;;;;;;17.80;11.90;;;;;;;4.95;60.32;102751.94;5012834;28;20049;-49
2022/03/01 08:46:12;;;;;;;17.88;12.65;;;;;;;4.96;60.36;102753.66;5015471;28;20404;-48
2022/03/01 08:48:40;;;;;;;18.63;12.65;;;;;;;4.97;60.59;102749.91;5025122;28;20076;-49
2022/03/01 08:51:08;;;;;;;16.55;10.90;;;;;;;5.03;61.28;102751.88;5032267;28;20488;-48
2022/03/01 08:53:36;;;;;;;19.00;11.90;;;;;;;5.07;60.28;102739.66;5034036;28;20128;-47
2022/03/01 08:56:03;;;;;;;20.15;11.63;;;;;;;5.08;60.53;102746.78;5034016;28;20132;-50
2022/03/01 08:58:31;;;;;;;19.95;11.95;;;;;;;5.12;60.31;102755.34;5030119;28;20125;-49
2022/03/01 09:01:02;;;;;;;17.38;11.45;;;;;;;5.17;60.30;102760.19;5014361;28;20100;-48
2022/03/01 09:03:30;;;;;;;20.75;12.00;;;;;;;5.21;60.25;102764.22;5014315;28;20042;-49
2022/03/01 09:06:12;;;;;;;27.00;16.02;;;;;;;5.25;60.39;102768.22;5018890;28;20037;-47
2022/03/01 09:08:40;;;;;;;19.67;12.65;;;;;;;5.30;60.80;102780.16;5030714;28;20117;-46
2022/03/01 09:11:10;;;;;;;22.40;12.73;;;;;;;5.30;60.66;102771.22;5012003;28;20572;-50
2022/03/01 09:13:38;;;;;;;17.27;11.75;;;;;;;5.31;60.13;102776.41;5013621;28;20544;-51
2022/03/01 09:16:07;;;;;;;19.13;12.23;;;;;;;5.32;59.80;102778.13;5022142;28;20034;-47
2022/03/01 09:18:36;;;;;;;19.42;12.63;;;;;;;5.28;59.49;102778.66;5018446;28;20041;-49
2022/03/01 09:21:05;;;;;;;19.33;11.98;;;;;;;5.27;59.92;102782.41;5019052;28;20062;-49
2022/03/01 09:23:39;;;;;;;18.35;11.52;;;;;;;5.33;60.18;102787.06;5018012;28;20041;-47
2022/03/01 09:26:07;;;;;;;20.63;12.57;;;;;;;5.29;59.19;102783.91;5025439;28;20072;-47
2022/03/01 09:28:35;;;;;;;18.83;12.23;;;;;;;5.27;59.80;102785.09;5012575;28;20050;-47
2022/03/01 09:31:03;;;;;;;20.35;13.13;;;;;;;5.29;59.39;102781.19;5013537;28;20072;-48
2022/03/01 09:33:32;;;;;;;20.88;12.30;;;;;;;5.28;59.47;102784.06;5013262;28;20041;-47
2022/03/01 09:36:01;;;;;;;18.67;12.80;;;;;;;5.29;59.45;102775.78;5015918;28;20508;-49
2022/03/01 09:38:28;;;;;;;20.95;12.55;;;;;;;5.34;60.93;102777.94;5012076;28;20450;-50
2022/03/01 09:40:56;;;;;;;20.55;12.88;;;;;;;5.38;60.11;102765.72;5015409;28;20046;-51
2022/03/01 09:43:24;;;;;;;20.38;12.23;;;;;;;5.45;60.32;102769.34;5021096;28;20040;-43
2022/03/01 09:45:52;;;;;;;26.55;12.80;;;;;;;5.52;60.30;102774.84;5032994;28;20157;-48
2022/03/01 09:48:20;;;;;;;18.95;12.18;;;;;;;5.57;59.45;102771.59;5030821;28;20033;-47
2022/03/01 09:50:48;;;;;;;19.98;12.82;;;;;;;5.59;59.40;102778.50;5025069;28;20040;-50
2022/03/01 09:53:16;;;;;;;18.08;12.70;;;;;;;5.57;59.65;102772.44;5012213;28;20049;-47
2022/03/01 09:55:44;;;;;;;18.63;12.50;;;;;;;5.57;59.79;102772.44;5025309;28;20429;-47
2022/03/01 09:58:14;;;;;;;19.27;12.82;;;;;;;5.60;59.99;102766.66;5032996;28;20385;-47
2022/03/01 10:00:42;;;;;;;21.30;12.40;;;;;;;5.64;60.10;102767.13;5031598;28;20116;-46
2022/03/01 10:03:09;;;;;;;23.05;12.73;;;;;;;5.66;59.36;102774.03;5032775;28;20171;-49
2022/03/01 10:05:41;;;;;;;21.95;11.77;;;;;;;5.64;59.23;102769.81;5023687;28;20045;-48
2022/03/01 10:08:11;;;;;;;17.70;12.77;;;;;;;5.69;59.41;102780.91;5012582;28;20133;-48
2022/03/01 10:10:50;;;;;;;19.33;12.52;;;;;;;5.68;59.15;102779.25;5027557;28;20038;-48
2022/03/01 10:13:40;;;;;;;15.73;10.05;;;;;;;5.79;61.13;102775.22;5032515;28;20592;-49
2022/03/01 10:16:11;;;;;;;15.23;10.13;;;;;;;5.89;61.43;102786.59;5014840;28;20038;-46
2022/03/01 10:18:43;;;;;;;18.80;12.35;;;;;;;5.97;61.46;102784.66;5013077;28;20136;-46
2022/03/01 10:21:13;;;;;;;18.05;11.82;;;;;;;6.01;59.35;102784.28;5018891;28;20420;-47
2022/03/01 10:23:47;;;;;;;20.65;13.15;;;;;;;5.96;59.31;102782.13;5018586;28;20136;-48
2022/03/01 10:26:19;;;;;;;17.50;11.18;;;;;;;5.95;59.26;102792.13;5017069;28;20038;-48
2022/03/01 10:28:48;;;;;;;19.20;11.10;;;;;;;6.16;65.01;102793.22;5027607;28;20088;-46
2022/03/01 10:31:24;;;;;;;15.95;11.93;;;;;;;6.11;61.22;102792.91;5017652;28;20161;-49
2022/03/01 10:34:09;;;;;;;17.70;12.35;;;;;;;6.05;59.99;102780.16;5036317;28;20069;-49
2022/03/01 10:36:48;;;;;;;19.50;12.50;;;;;;;6.03;59.40;102771.41;5029700;28;20072;-49
2022/03/01 10:39:19;;;;;;;20.27;14.80;;;;;;;6.03;59.23;102765.97;5036169;28;20583;-47
2022/03/01 10:41:49;;;;;;;19.98;12.40;;;;;;;6.06;59.45;102765.59;5034155;28;20045;-47
2022/03/01 10:44:20;;;;;;;17.52;12.13;;;;;;;6.10;59.47;102772.31;5029515;28;20415;-49
2022/03/01 10:46:55;;;;;;;21.98;13.55;;;;;;;6.13;59.61;102770.09;5022491;28;20175;-48
2022/03/01 10:49:26;;;;;;;20.88;13.18;;;;;;;6.13;59.27;102769.22;5035624;28;20072;-47
2022/03/01 10:52:05;;;;;;;17.02;12.15;;;;;;;6.15;59.66;102764.47;5009231;28;20112;-48
2022/03/01 10:54:39;;;;;;;19.38;13.68;;;;;;;6.17;59.50;102770.53;5026910;28;20046;-45
2022/03/01 10:57:09;;;;;;;19.83;11.98;;;;;;;6.21;59.98;102763.72;5023273;28;20038;-50
2022/03/01 10:59:39;;;;;;;24.08;14.63;;;;;;;6.28;60.18;102780.88;5014571;28;20042;-50
2022/03/01 11:02:07;;;;;;;19.30;13.55;;;;;;;6.30;59.95;102778.81;5018703;28;20046;-48
2022/03/01 11:04:36;;;;;;;20.17;13.52;;;;;;;6.32;58.98;102787.56;5016002;28;20046;-45
2022/03/01 11:07:05;;;;;;;19.60;14.32;;;;;;;6.33;59.13;102781.13;5016109;28;20046;-46
2022/03/01 11:09:34;;;;;;;15.93;11.90;;;;;;;6.35;58.96;102784.50;5016888;28;20038;-47
2022/03/01 11:12:05;;;;;;;17.80;13.15;;;;;;;6.37;58.50;102778.88;5026201;28;20096;-47
2022/03/01 11:14:41;;;;;;;16.85;11.98;;;;;;;6.46;60.00;102782.31;5014472;28;20046;-49
2022/03/01 11:17:34;;;;;;;18.83;12.82;;;;;;;6.50;58.63;102770.06;5024687;28;20041;-46
2022/03/01 11:20:14;;;;;;;21.13;12.48;;;;;;;6.50;58.74;102767.34;5034247;28;20116;-48
2022/03/01 11:22:47;;;;;;;20.40;13.50;;;;;;;6.51;58.45;102759.00;5019231;28;20136;-48
2022/03/01 11:25:27;;;;;;;23.20;14.02;;;;;;;6.51;58.10;102763.59;5014518;28;20050;-50